Roherstown, Pennsylvania
Current Conditions -  °F | °C
As of 5:53 AM on Saturday 25 Oct 2014 (Local Time) from KLNS Reporting Station
Clear Clear  
Wind Chill: 42°   Ceiling: Unl
Heat Index: 45°   Visibility: 10mi
Dew Point: 38°   Wind: 6mph
Humidity: 76%   Direction: 260°W
Pressure: 29.92"   Gusts: NA
Location:  40.0115°N, 76.3553°W
Report Text: KLNS 250953Z AUTO 26005KT 10SM CLR 07/03 A2992 RMK AO2 SLP131 T00720033
Loading
Personal Weather Stations






























Interactive Weather Map
Tropical Storm Tracking
New forecast layout! Learn more

10-Day Weather Forecast

Advertisements
Track Severe Weather on mobile